sensor_id;sensor_type;location;lat;lon;timestamp;P1;durP1;ratioP1;P2;durP2;ratioP2
25111;SDS011;13092;51.996;4.458;2024-03-02T00:00:42;54.08;;;49.08;;
25111;SDS011;13092;51.996;4.458;2024-03-02T00:03:13;55.83;;;50.78;;
25111;SDS011;13092;51.996;4.458;2024-03-02T00:05:56;55.00;;;49.95;;
25111;SDS011;13092;51.996;4.458;2024-03-02T00:08:24;57.90;;;52.60;;
25111;SDS011;13092;51.996;4.458;2024-03-02T00:10:56;58.42;;;53.22;;
25111;SDS011;13092;51.996;4.458;2024-03-02T00:13:29;59.05;;;53.85;;
25111;SDS011;13092;51.996;4.458;2024-03-02T00:15:58;59.65;;;54.35;;
25111;SDS011;13092;51.996;4.458;2024-03-02T00:18:30;59.67;;;54.33;;
25111;SDS011;13092;51.996;4.458;2024-03-02T00:21:00;56.67;;;51.47;;
25111;SDS011;13092;51.996;4.458;2024-03-02T00:23:29;58.83;;;53.60;;
25111;SDS011;13092;51.996;4.458;2024-03-02T00:25:58;56.92;;;51.78;;
25111;SDS011;13092;51.996;4.458;2024-03-02T00:28:29;57.65;;;52.47;;
25111;SDS011;13092;51.996;4.458;2024-03-02T00:31:04;58.00;;;52.60;;
25111;SDS011;13092;51.996;4.458;2024-03-02T00:33:34;59.80;;;54.60;;
25111;SDS011;13092;51.996;4.458;2024-03-02T00:36:05;58.45;;;53.28;;
25111;SDS011;13092;51.996;4.458;2024-03-02T00:38:42;58.33;;;53.22;;
25111;SDS011;13092;51.996;4.458;2024-03-02T00:41:17;57.35;;;52.17;;
25111;SDS011;13092;51.996;4.458;2024-03-02T00:43:59;55.90;;;50.70;;
25111;SDS011;13092;51.996;4.458;2024-03-02T00:46:31;55.88;;;50.88;;
25111;SDS011;13092;51.996;4.458;2024-03-02T00:49:12;57.67;;;52.47;;
25111;SDS011;13092;51.996;4.458;2024-03-02T00:51:46;56.63;;;51.58;;
25111;SDS011;13092;51.996;4.458;2024-03-02T00:54:19;57.05;;;51.95;;
25111;SDS011;13092;51.996;4.458;2024-03-02T00:56:50;56.80;;;51.70;;
25111;SDS011;13092;51.996;4.458;2024-03-02T00:59:26;57.33;;;52.22;;
25111;SDS011;13092;51.996;4.458;2024-03-02T01:02:05;59.20;;;54.03;;
25111;SDS011;13092;51.996;4.458;2024-03-02T01:04:34;57.10;;;52.05;;
25111;SDS011;13092;51.996;4.458;2024-03-02T01:07:02;57.95;;;52.92;;
25111;SDS011;13092;51.996;4.458;2024-03-02T01:09:31;57.20;;;52.03;;
25111;SDS011;13092;51.996;4.458;2024-03-02T01:11:59;57.20;;;52.00;;
25111;SDS011;13092;51.996;4.458;2024-03-02T01:14:29;55.75;;;50.85;;
25111;SDS011;13092;51.996;4.458;2024-03-02T01:17:00;58.03;;;52.97;;
25111;SDS011;13092;51.996;4.458;2024-03-02T01:19:33;55.78;;;50.88;;
25111;SDS011;13092;51.996;4.458;2024-03-02T01:22:02;55.67;;;50.67;;
25111;SDS011;13092;51.996;4.458;2024-03-02T01:24:30;55.95;;;50.95;;
25111;SDS011;13092;51.996;4.458;2024-03-02T01:26:58;55.50;;;50.50;;
25111;SDS011;13092;51.996;4.458;2024-03-02T01:29:28;55.92;;;50.83;;
25111;SDS011;13092;51.996;4.458;2024-03-02T01:31:56;56.67;;;51.65;;
25111;SDS011;13092;51.996;4.458;2024-03-02T01:34:25;56.70;;;51.70;;
25111;SDS011;13092;51.996;4.458;2024-03-02T01:36:53;56.05;;;51.05;;
25111;SDS011;13092;51.996;4.458;2024-03-02T01:39:22;56.65;;;51.55;;
25111;SDS011;13092;51.996;4.458;2024-03-02T01:41:49;58.03;;;52.92;;
25111;SDS011;13092;51.996;4.458;2024-03-02T01:44:18;57.00;;;52.00;;
25111;SDS011;13092;51.996;4.458;2024-03-02T01:46:47;56.50;;;51.50;;
25111;SDS011;13092;51.996;4.458;2024-03-02T01:49:17;57.95;;;52.85;;
25111;SDS011;13092;51.996;4.458;2024-03-02T01:51:45;58.88;;;53.67;;
25111;SDS011;13092;51.996;4.458;2024-03-02T01:54:14;60.08;;;54.67;;
25111;SDS011;13092;51.996;4.458;2024-03-02T01:56:43;60.40;;;55.10;;
25111;SDS011;13092;51.996;4.458;2024-03-02T01:59:11;57.00;;;51.90;;
25111;SDS011;13092;51.996;4.458;2024-03-02T02:01:45;57.83;;;52.63;;
25111;SDS011;13092;51.996;4.458;2024-03-02T02:04:18;58.80;;;53.60;;
25111;SDS011;13092;51.996;4.458;2024-03-02T02:06:48;58.40;;;53.00;;
25111;SDS011;13092;51.996;4.458;2024-03-02T02:09:16;59.50;;;54.30;;
25111;SDS011;13092;51.996;4.458;2024-03-02T02:11:45;57.92;;;52.83;;
25111;SDS011;13092;51.996;4.458;2024-03-02T02:14:13;59.13;;;53.93;;
25111;SDS011;13092;51.996;4.458;2024-03-02T02:16:44;58.25;;;53.05;;
25111;SDS011;13092;51.996;4.458;2024-03-02T02:19:14;58.05;;;52.95;;
25111;SDS011;13092;51.996;4.458;2024-03-02T02:21:46;57.05;;;51.92;;
25111;SDS011;13092;51.996;4.458;2024-03-02T02:24:15;59.08;;;53.78;;
25111;SDS011;13092;51.996;4.458;2024-03-02T02:26:46;58.72;;;53.63;;
25111;SDS011;13092;51.996;4.458;2024-03-02T02:29:14;58.22;;;52.92;;
25111;SDS011;13092;51.996;4.458;2024-03-02T02:31:42;59.50;;;54.30;;
25111;SDS011;13092;51.996;4.458;2024-03-02T02:34:11;58.97;;;53.77;;
25111;SDS011;13092;51.996;4.458;2024-03-02T02:36:44;57.60;;;52.45;;
25111;SDS011;13092;51.996;4.458;2024-03-02T02:39:13;58.33;;;53.33;;
25111;SDS011;13092;51.996;4.458;2024-03-02T02:41:44;57.53;;;52.33;;
25111;SDS011;13092;51.996;4.458;2024-03-02T02:44:12;57.83;;;52.73;;
25111;SDS011;13092;51.996;4.458;2024-03-02T02:46:41;55.67;;;50.78;;
25111;SDS011;13092;51.996;4.458;2024-03-02T02:49:10;55.58;;;50.67;;
25111;SDS011;13092;51.996;4.458;2024-03-02T02:51:41;57.58;;;52.45;;
25111;SDS011;13092;51.996;4.458;2024-03-02T02:54:15;55.88;;;51.00;;
25111;SDS011;13092;51.996;4.458;2024-03-02T02:56:44;57.40;;;52.37;;
25111;SDS011;13092;51.996;4.458;2024-03-02T02:59:12;56.67;;;51.78;;
25111;SDS011;13092;51.996;4.458;2024-03-02T03:01:40;57.88;;;52.88;;
25111;SDS011;13092;51.996;4.458;2024-03-02T03:04:09;55.55;;;50.65;;
25111;SDS011;13092;51.996;4.458;2024-03-02T03:06:37;56.22;;;51.38;;
25111;SDS011;13092;51.996;4.458;2024-03-02T03:09:06;56.47;;;51.58;;
25111;SDS011;13092;51.996;4.458;2024-03-02T03:11:39;57.80;;;52.80;;
25111;SDS011;13092;51.996;4.458;2024-03-02T03:14:09;55.85;;;50.95;;
25111;SDS011;13092;51.996;4.458;2024-03-02T03:16:37;56.78;;;51.83;;
25111;SDS011;13092;51.996;4.458;2024-03-02T03:19:06;57.75;;;52.75;;
25111;SDS011;13092;51.996;4.458;2024-03-02T03:21:35;57.60;;;52.70;;
25111;SDS011;13092;51.996;4.458;2024-03-02T03:24:06;57.00;;;51.90;;
25111;SDS011;13092;51.996;4.458;2024-03-02T03:26:35;57.42;;;52.47;;
25111;SDS011;13092;51.996;4.458;2024-03-02T03:29:05;57.63;;;52.72;;
25111;SDS011;13092;51.996;4.458;2024-03-02T03:31:33;58.28;;;53.05;;
25111;SDS011;13092;51.996;4.458;2024-03-02T03:34:02;56.70;;;51.90;;
25111;SDS011;13092;51.996;4.458;2024-03-02T03:36:30;57.17;;;52.28;;
25111;SDS011;13092;51.996;4.458;2024-03-02T03:38:59;57.95;;;53.10;;
25111;SDS011;13092;51.996;4.458;2024-03-02T03:41:29;57.67;;;52.58;;
25111;SDS011;13092;51.996;4.458;2024-03-02T03:43:58;56.00;;;51.20;;
25111;SDS011;13092;51.996;4.458;2024-03-02T03:46:28;57.80;;;52.85;;
25111;SDS011;13092;51.996;4.458;2024-03-02T03:48:56;56.88;;;51.97;;
25111;SDS011;13092;51.996;4.458;2024-03-02T03:51:24;56.15;;;51.22;;
25111;SDS011;13092;51.996;4.458;2024-03-02T03:53:53;56.95;;;52.15;;
25111;SDS011;13092;51.996;4.458;2024-03-02T03:56:21;56.97;;;52.10;;
25111;SDS011;13092;51.996;4.458;2024-03-02T03:58:50;56.97;;;52.17;;
25111;SDS011;13092;51.996;4.458;2024-03-02T04:01:18;58.03;;;53.10;;
25111;SDS011;13092;51.996;4.458;2024-03-02T04:03:50;55.70;;;51.00;;
25111;SDS011;13092;51.996;4.458;2024-03-02T04:06:19;56.25;;;51.35;;
25111;SDS011;13092;51.996;4.458;2024-03-02T04:08:47;54.65;;;49.97;;
25111;SDS011;13092;51.996;4.458;2024-03-02T04:11:15;54.72;;;50.10;;
25111;SDS011;13092;51.996;4.458;2024-03-02T04:13:45;55.77;;;50.97;;
25111;SDS011;13092;51.996;4.458;2024-03-02T04:16:13;58.33;;;53.33;;
25111;SDS011;13092;51.996;4.458;2024-03-02T04:18:41;57.03;;;52.13;;
25111;SDS011;13092;51.996;4.458;2024-03-02T04:21:11;55.13;;;50.42;;
25111;SDS011;13092;51.996;4.458;2024-03-02T04:23:40;54.55;;;49.85;;
25111;SDS011;13092;51.996;4.458;2024-03-02T04:26:10;58.28;;;53.38;;
25111;SDS011;13092;51.996;4.458;2024-03-02T04:28:39;56.80;;;51.97;;
25111;SDS011;13092;51.996;4.458;2024-03-02T04:31:07;58.95;;;53.95;;
25111;SDS011;13092;51.996;4.458;2024-03-02T04:33:35;57.28;;;52.42;;
25111;SDS011;13092;51.996;4.458;2024-03-02T04:36:04;58.78;;;53.88;;
25111;SDS011;13092;51.996;4.458;2024-03-02T04:38:36;55.75;;;51.15;;
25111;SDS011;13092;51.996;4.458;2024-03-02T04:41:05;56.22;;;51.53;;
25111;SDS011;13092;51.996;4.458;2024-03-02T04:43:34;56.33;;;51.53;;
25111;SDS011;13092;51.996;4.458;2024-03-02T04:46:03;56.20;;;51.58;;
25111;SDS011;13092;51.996;4.458;2024-03-02T04:48:32;57.38;;;52.58;;
25111;SDS011;13092;51.996;4.458;2024-03-02T04:51:01;59.40;;;54.50;;
25111;SDS011;13092;51.996;4.458;2024-03-02T04:53:30;57.17;;;52.42;;
25111;SDS011;13092;51.996;4.458;2024-03-02T04:56:00;58.40;;;53.53;;
25111;SDS011;13092;51.996;4.458;2024-03-02T04:58:42;57.88;;;53.15;;
25111;SDS011;13092;51.996;4.458;2024-03-02T05:01:10;57.05;;;52.45;;
25111;SDS011;13092;51.996;4.458;2024-03-02T05:03:39;57.17;;;52.47;;
25111;SDS011;13092;51.996;4.458;2024-03-02T05:06:07;57.23;;;52.53;;
25111;SDS011;13092;51.996;4.458;2024-03-02T05:08:36;56.50;;;51.80;;
25111;SDS011;13092;51.996;4.458;2024-03-02T05:11:08;57.17;;;52.60;;
25111;SDS011;13092;51.996;4.458;2024-03-02T05:13:54;58.25;;;53.42;;
25111;SDS011;13092;51.996;4.458;2024-03-02T05:16:22;56.10;;;51.60;;
25111;SDS011;13092;51.996;4.458;2024-03-02T05:18:53;54.77;;;50.37;;
25111;SDS011;13092;51.996;4.458;2024-03-02T05:21:24;55.97;;;51.47;;
25111;SDS011;13092;51.996;4.458;2024-03-02T05:23:52;55.87;;;51.13;;
25111;SDS011;13092;51.996;4.458;2024-03-02T05:26:22;55.58;;;51.08;;
25111;SDS011;13092;51.996;4.458;2024-03-02T05:28:50;55.67;;;51.17;;
25111;SDS011;13092;51.996;4.458;2024-03-02T05:31:19;54.37;;;49.97;;
25111;SDS011;13092;51.996;4.458;2024-03-02T05:33:50;57.23;;;52.60;;
25111;SDS011;13092;51.996;4.458;2024-03-02T05:36:23;55.20;;;50.70;;
25111;SDS011;13092;51.996;4.458;2024-03-02T05:38:52;56.58;;;52.08;;
25111;SDS011;13092;51.996;4.458;2024-03-02T05:41:21;57.53;;;52.83;;
25111;SDS011;13092;51.996;4.458;2024-03-02T05:43:50;58.30;;;53.60;;
25111;SDS011;13092;51.996;4.458;2024-03-02T05:46:18;56.75;;;51.95;;
25111;SDS011;13092;51.996;4.458;2024-03-02T05:48:46;57.93;;;53.03;;
25111;SDS011;13092;51.996;4.458;2024-03-02T05:51:15;55.97;;;51.37;;
25111;SDS011;13092;51.996;4.458;2024-03-02T05:53:44;56.80;;;52.10;;
25111;SDS011;13092;51.996;4.458;2024-03-02T05:56:12;56.57;;;51.97;;
25111;SDS011;13092;51.996;4.458;2024-03-02T05:58:42;57.28;;;52.60;;
25111;SDS011;13092;51.996;4.458;2024-03-02T06:01:29;55.28;;;50.72;;
25111;SDS011;13092;51.996;4.458;2024-03-02T06:04:04;54.95;;;50.25;;
25111;SDS011;13092;51.996;4.458;2024-03-02T06:06:32;52.77;;;48.43;;
25111;SDS011;13092;51.996;4.458;2024-03-02T06:09:01;54.75;;;50.35;;
25111;SDS011;13092;51.996;4.458;2024-03-02T06:11:31;54.25;;;49.72;;
25111;SDS011;13092;51.996;4.458;2024-03-02T06:14:03;53.08;;;48.67;;
25111;SDS011;13092;51.996;4.458;2024-03-02T06:16:34;55.42;;;50.67;;
25111;SDS011;13092;51.996;4.458;2024-03-02T06:19:05;54.67;;;50.22;;
25111;SDS011;13092;51.996;4.458;2024-03-02T06:21:34;55.20;;;50.70;;
25111;SDS011;13092;51.996;4.458;2024-03-02T06:24:02;54.53;;;50.23;;
25111;SDS011;13092;51.996;4.458;2024-03-02T06:26:31;53.73;;;49.37;;
25111;SDS011;13092;51.996;4.458;2024-03-02T06:28:59;52.70;;;48.43;;
25111;SDS011;13092;51.996;4.458;2024-03-02T06:31:30;51.00;;;46.90;;
25111;SDS011;13092;51.996;4.458;2024-03-02T06:33:59;51.30;;;47.10;;
25111;SDS011;13092;51.996;4.458;2024-03-02T06:36:30;52.30;;;47.90;;
25111;SDS011;13092;51.996;4.458;2024-03-02T06:39:08;50.08;;;45.88;;
25111;SDS011;13092;51.996;4.458;2024-03-02T06:41:39;48.75;;;44.65;;
25111;SDS011;13092;51.996;4.458;2024-03-02T06:44:10;49.03;;;44.83;;
25111;SDS011;13092;51.996;4.458;2024-03-02T06:46:45;45.42;;;41.40;;
25111;SDS011;13092;51.996;4.458;2024-03-02T06:49:16;45.00;;;40.97;;
25111;SDS011;13092;51.996;4.458;2024-03-02T06:51:46;45.30;;;41.30;;
25111;SDS011;13092;51.996;4.458;2024-03-02T06:54:16;45.53;;;41.42;;
25111;SDS011;13092;51.996;4.458;2024-03-02T06:56:44;47.55;;;43.35;;
25111;SDS011;13092;51.996;4.458;2024-03-02T06:59:14;46.70;;;42.70;;
25111;SDS011;13092;51.996;4.458;2024-03-02T07:01:43;47.27;;;43.17;;
25111;SDS011;13092;51.996;4.458;2024-03-02T07:04:11;47.53;;;43.43;;
25111;SDS011;13092;51.996;4.458;2024-03-02T07:06:42;48.83;;;44.73;;
25111;SDS011;13092;51.996;4.458;2024-03-02T07:09:11;48.05;;;43.85;;
25111;SDS011;13092;51.996;4.458;2024-03-02T07:11:39;47.20;;;42.97;;
25111;SDS011;13092;51.996;4.458;2024-03-02T07:14:07;47.10;;;42.80;;
25111;SDS011;13092;51.996;4.458;2024-03-02T07:16:40;46.90;;;42.63;;
25111;SDS011;13092;51.996;4.458;2024-03-02T07:19:11;45.93;;;41.80;;
25111;SDS011;13092;51.996;4.458;2024-03-02T07:21:41;45.90;;;41.80;;
25111;SDS011;13092;51.996;4.458;2024-03-02T07:24:12;44.17;;;40.28;;
25111;SDS011;13092;51.996;4.458;2024-03-02T07:26:42;46.45;;;41.95;;
25111;SDS011;13092;51.996;4.458;2024-03-02T07:29:14;46.70;;;42.50;;
25111;SDS011;13092;51.996;4.458;2024-03-02T07:31:43;45.70;;;41.47;;
25111;SDS011;13092;51.996;4.458;2024-03-02T07:34:12;45.35;;;41.28;;
25111;SDS011;13092;51.996;4.458;2024-03-02T07:36:40;48.37;;;43.90;;
25111;SDS011;13092;51.996;4.458;2024-03-02T07:39:08;45.57;;;41.47;;
25111;SDS011;13092;51.996;4.458;2024-03-02T07:41:37;45.77;;;41.47;;
25111;SDS011;13092;51.996;4.458;2024-03-02T07:44:05;45.47;;;41.27;;
25111;SDS011;13092;51.996;4.458;2024-03-02T07:46:33;46.40;;;41.90;;
25111;SDS011;13092;51.996;4.458;2024-03-02T07:49:05;44.00;;;39.90;;
25111;SDS011;13092;51.996;4.458;2024-03-02T07:51:36;43.95;;;39.75;;
25111;SDS011;13092;51.996;4.458;2024-03-02T07:54:05;45.20;;;41.05;;
25111;SDS011;13092;51.996;4.458;2024-03-02T07:56:33;46.60;;;42.30;;
25111;SDS011;13092;51.996;4.458;2024-03-02T07:59:04;45.87;;;41.73;;
25111;SDS011;13092;51.996;4.458;2024-03-02T08:01:33;47.95;;;43.45;;
25111;SDS011;13092;51.996;4.458;2024-03-02T08:04:02;47.08;;;42.58;;
25111;SDS011;13092;51.996;4.458;2024-03-02T08:06:32;45.53;;;41.53;;
25111;SDS011;13092;51.996;4.458;2024-03-02T08:09:00;46.00;;;41.70;;
25111;SDS011;13092;51.996;4.458;2024-03-02T08:11:31;44.17;;;39.88;;
25111;SDS011;13092;51.996;4.458;2024-03-02T08:14:03;45.47;;;41.47;;
25111;SDS011;13092;51.996;4.458;2024-03-02T08:16:39;45.83;;;41.85;;
25111;SDS011;13092;51.996;4.458;2024-03-02T08:19:10;45.22;;;41.22;;
25111;SDS011;13092;51.996;4.458;2024-03-02T08:21:40;46.20;;;41.87;;
25111;SDS011;13092;51.996;4.458;2024-03-02T08:24:08;44.27;;;40.33;;
25111;SDS011;13092;51.996;4.458;2024-03-02T08:26:37;46.13;;;41.75;;
25111;SDS011;13092;51.996;4.458;2024-03-02T08:29:05;45.53;;;41.55;;
25111;SDS011;13092;51.996;4.458;2024-03-02T08:31:33;44.28;;;40.38;;
25111;SDS011;13092;51.996;4.458;2024-03-02T08:34:07;43.65;;;39.65;;
25111;SDS011;13092;51.996;4.458;2024-03-02T08:36:35;43.10;;;39.33;;
25111;SDS011;13092;51.996;4.458;2024-03-02T08:39:06;43.67;;;39.88;;
25111;SDS011;13092;51.996;4.458;2024-03-02T08:41:42;43.85;;;40.05;;
25111;SDS011;13092;51.996;4.458;2024-03-02T08:44:12;43.28;;;39.33;;
25111;SDS011;13092;51.996;4.458;2024-03-02T08:46:40;43.55;;;39.65;;
25111;SDS011;13092;51.996;4.458;2024-03-02T08:49:10;41.72;;;38.20;;
25111;SDS011;13092;51.996;4.458;2024-03-02T08:51:39;43.45;;;39.53;;
25111;SDS011;13092;51.996;4.458;2024-03-02T08:54:18;43.45;;;39.60;;
25111;SDS011;13092;51.996;4.458;2024-03-02T08:56:52;42.47;;;38.88;;
25111;SDS011;13092;51.996;4.458;2024-03-02T08:59:22;42.58;;;39.05;;
25111;SDS011;13092;51.996;4.458;2024-03-02T09:01:51;42.30;;;39.00;;
25111;SDS011;13092;51.996;4.458;2024-03-02T09:04:20;42.10;;;38.70;;
25111;SDS011;13092;51.996;4.458;2024-03-02T09:06:53;42.10;;;38.35;;
25111;SDS011;13092;51.996;4.458;2024-03-02T09:09:23;42.42;;;38.92;;
25111;SDS011;13092;51.996;4.458;2024-03-02T09:11:52;42.72;;;39.28;;
25111;SDS011;13092;51.996;4.458;2024-03-02T09:14:21;43.45;;;39.95;;
25111;SDS011;13092;51.996;4.458;2024-03-02T09:16:49;43.60;;;40.10;;
25111;SDS011;13092;51.996;4.458;2024-03-02T09:19:18;43.22;;;39.92;;
25111;SDS011;13092;51.996;4.458;2024-03-02T09:21:46;43.30;;;39.95;;
25111;SDS011;13092;51.996;4.458;2024-03-02T09:24:14;44.13;;;40.50;;
25111;SDS011;13092;51.996;4.458;2024-03-02T09:26:45;43.90;;;40.30;;
25111;SDS011;13092;51.996;4.458;2024-03-02T09:29:13;42.63;;;39.33;;
25111;SDS011;13092;51.996;4.458;2024-03-02T09:31:42;41.22;;;37.95;;
25111;SDS011;13092;51.996;4.458;2024-03-02T09:34:10;41.05;;;37.90;;
25111;SDS011;13092;51.996;4.458;2024-03-02T09:36:40;40.47;;;37.30;;
25111;SDS011;13092;51.996;4.458;2024-03-02T09:39:09;39.60;;;36.60;;
25111;SDS011;13092;51.996;4.458;2024-03-02T09:41:40;40.10;;;36.97;;
25111;SDS011;13092;51.996;4.458;2024-03-02T09:44:10;39.38;;;36.22;;
25111;SDS011;13092;51.996;4.458;2024-03-02T09:46:39;38.97;;;36.22;;
25111;SDS011;13092;51.996;4.458;2024-03-02T09:49:10;38.53;;;35.63;;
25111;SDS011;13092;51.996;4.458;2024-03-02T09:51:45;37.90;;;34.97;;
25111;SDS011;13092;51.996;4.458;2024-03-02T09:54:15;37.15;;;34.55;;
25111;SDS011;13092;51.996;4.458;2024-03-02T09:56:49;36.35;;;33.75;;
25111;SDS011;13092;51.996;4.458;2024-03-02T09:59:19;35.63;;;33.13;;
25111;SDS011;13092;51.996;4.458;2024-03-02T10:01:58;35.72;;;33.00;;
25111;SDS011;13092;51.996;4.458;2024-03-02T10:04:27;34.00;;;31.65;;
25111;SDS011;13092;51.996;4.458;2024-03-02T10:07:10;34.45;;;32.03;;
25111;SDS011;13092;51.996;4.458;2024-03-02T10:09:40;33.75;;;31.45;;
25111;SDS011;13092;51.996;4.458;2024-03-02T10:12:10;35.08;;;32.60;;
25111;SDS011;13092;51.996;4.458;2024-03-02T10:14:41;34.88;;;32.38;;
25111;SDS011;13092;51.996;4.458;2024-03-02T10:17:11;35.40;;;32.90;;
25111;SDS011;13092;51.996;4.458;2024-03-02T10:19:42;34.95;;;32.45;;
25111;SDS011;13092;51.996;4.458;2024-03-02T10:22:10;35.17;;;32.67;;
25111;SDS011;13092;51.996;4.458;2024-03-02T10:24:39;36.53;;;33.70;;
25111;SDS011;13092;51.996;4.458;2024-03-02T10:27:14;36.38;;;33.65;;
25111;SDS011;13092;51.996;4.458;2024-03-02T10:29:47;36.35;;;33.55;;
25111;SDS011;13092;51.996;4.458;2024-03-02T10:32:15;36.08;;;33.38;;
25111;SDS011;13092;51.996;4.458;2024-03-02T10:34:44;36.15;;;33.55;;
25111;SDS011;13092;51.996;4.458;2024-03-02T10:37:16;35.58;;;32.95;;
25111;SDS011;13092;51.996;4.458;2024-03-02T10:39:46;34.83;;;32.05;;
25111;SDS011;13092;51.996;4.458;2024-03-02T10:42:15;34.10;;;31.70;;
25111;SDS011;13092;51.996;4.458;2024-03-02T10:44:46;33.58;;;31.27;;
25111;SDS011;13092;51.996;4.458;2024-03-02T10:47:17;33.47;;;31.08;;
25111;SDS011;13092;51.996;4.458;2024-03-02T10:49:47;32.65;;;30.17;;
25111;SDS011;13092;51.996;4.458;2024-03-02T10:52:18;33.75;;;31.35;;
25111;SDS011;13092;51.996;4.458;2024-03-02T10:54:49;33.28;;;31.00;;
25111;SDS011;13092;51.996;4.458;2024-03-02T10:57:18;32.70;;;30.38;;
25111;SDS011;13092;51.996;4.458;2024-03-02T10:59:53;32.97;;;30.40;;
25111;SDS011;13092;51.996;4.458;2024-03-02T11:02:28;31.08;;;28.95;;
25111;SDS011;13092;51.996;4.458;2024-03-02T11:04:59;31.52;;;29.33;;
25111;SDS011;13092;51.996;4.458;2024-03-02T11:07:29;31.90;;;29.65;;
25111;SDS011;13092;51.996;4.458;2024-03-02T11:10:00;33.97;;;31.77;;
25111;SDS011;13092;51.996;4.458;2024-03-02T11:12:36;33.00;;;30.55;;
25111;SDS011;13092;51.996;4.458;2024-03-02T11:15:17;31.92;;;29.48;;
25111;SDS011;13092;51.996;4.458;2024-03-02T11:17:46;29.33;;;27.13;;
25111;SDS011;13092;51.996;4.458;2024-03-02T11:20:16;26.85;;;24.95;;
25111;SDS011;13092;51.996;4.458;2024-03-02T11:22:46;24.73;;;23.00;;
25111;SDS011;13092;51.996;4.458;2024-03-02T11:25:24;21.75;;;20.23;;
25111;SDS011;13092;51.996;4.458;2024-03-02T11:28:00;18.88;;;17.52;;
25111;SDS011;13092;51.996;4.458;2024-03-02T11:33:24;17.45;;;15.73;;
25111;SDS011;13092;51.996;4.458;2024-03-02T11:35:57;15.43;;;13.98;;
25111;SDS011;13092;51.996;4.458;2024-03-02T11:38:32;14.98;;;10.18;;
25111;SDS011;13092;51.996;4.458;2024-03-02T11:41:02;9.00;;;6.70;;
25111;SDS011;13092;51.996;4.458;2024-03-02T11:43:36;10.85;;;5.53;;
25111;SDS011;13092;51.996;4.458;2024-03-02T11:46:08;8.10;;;5.20;;
25111;SDS011;13092;51.996;4.458;2024-03-02T11:48:37;6.53;;;4.13;;
25111;SDS011;13092;51.996;4.458;2024-03-02T11:51:07;7.50;;;2.33;;
25111;SDS011;13092;51.996;4.458;2024-03-02T11:53:36;8.18;;;2.35;;
25111;SDS011;13092;51.996;4.458;2024-03-02T11:56:07;4.30;;;1.70;;
25111;SDS011;13092;51.996;4.458;2024-03-02T11:58:38;4.80;;;1.40;;
25111;SDS011;13092;51.996;4.458;2024-03-02T12:01:11;3.97;;;1.50;;
25111;SDS011;13092;51.996;4.458;2024-03-02T12:03:40;4.95;;;1.50;;
25111;SDS011;13092;51.996;4.458;2024-03-02T12:06:09;4.53;;;1.60;;
25111;SDS011;13092;51.996;4.458;2024-03-02T12:08:37;3.00;;;1.35;;
25111;SDS011;13092;51.996;4.458;2024-03-02T12:11:06;7.72;;;1.65;;
25111;SDS011;13092;51.996;4.458;2024-03-02T12:13:35;8.02;;;1.70;;
25111;SDS011;13092;51.996;4.458;2024-03-02T12:16:12;7.13;;;1.83;;
25111;SDS011;13092;51.996;4.458;2024-03-02T12:18:59;4.88;;;1.48;;
25111;SDS011;13092;51.996;4.458;2024-03-02T12:21:27;3.55;;;1.77;;
25111;SDS011;13092;51.996;4.458;2024-03-02T12:23:55;6.03;;;2.13;;
25111;SDS011;13092;51.996;4.458;2024-03-02T12:26:24;6.80;;;1.63;;
25111;SDS011;13092;51.996;4.458;2024-03-02T12:28:52;8.63;;;2.28;;
25111;SDS011;13092;51.996;4.458;2024-03-02T12:31:23;6.95;;;1.70;;
25111;SDS011;13092;51.996;4.458;2024-03-02T12:33:51;8.90;;;2.42;;
25111;SDS011;13092;51.996;4.458;2024-03-02T12:36:20;6.20;;;1.70;;
25111;SDS011;13092;51.996;4.458;2024-03-02T12:38:52;9.68;;;1.83;;
25111;SDS011;13092;51.996;4.458;2024-03-02T12:41:21;5.55;;;1.70;;
25111;SDS011;13092;51.996;4.458;2024-03-02T12:43:50;6.15;;;1.50;;
25111;SDS011;13092;51.996;4.458;2024-03-02T12:46:18;5.60;;;1.42;;
25111;SDS011;13092;51.996;4.458;2024-03-02T12:48:50;7.35;;;1.70;;
25111;SDS011;13092;51.996;4.458;2024-03-02T12:51:19;5.38;;;1.75;;
25111;SDS011;13092;51.996;4.458;2024-03-02T12:53:52;4.88;;;1.70;;
25111;SDS011;13092;51.996;4.458;2024-03-02T12:56:24;7.63;;;1.80;;
25111;SDS011;13092;51.996;4.458;2024-03-02T12:58:53;5.88;;;1.73;;
25111;SDS011;13092;51.996;4.458;2024-03-02T13:01:24;6.03;;;1.73;;
25111;SDS011;13092;51.996;4.458;2024-03-02T13:03:57;6.10;;;1.60;;
25111;SDS011;13092;51.996;4.458;2024-03-02T13:06:26;9.85;;;1.80;;
25111;SDS011;13092;51.996;4.458;2024-03-02T13:08:58;3.80;;;1.50;;
25111;SDS011;13092;51.996;4.458;2024-03-02T13:11:26;6.70;;;1.88;;
25111;SDS011;13092;51.996;4.458;2024-03-02T13:13:55;6.05;;;2.05;;
25111;SDS011;13092;51.996;4.458;2024-03-02T13:16:23;5.95;;;1.48;;
25111;SDS011;13092;51.996;4.458;2024-03-02T13:18:59;5.10;;;1.75;;
25111;SDS011;13092;51.996;4.458;2024-03-02T13:21:32;6.32;;;1.85;;
25111;SDS011;13092;51.996;4.458;2024-03-02T13:24:01;6.03;;;1.60;;
25111;SDS011;13092;51.996;4.458;2024-03-02T13:26:29;5.18;;;1.30;;
25111;SDS011;13092;51.996;4.458;2024-03-02T13:28:58;6.32;;;1.90;;
25111;SDS011;13092;51.996;4.458;2024-03-02T13:31:26;5.35;;;1.45;;
25111;SDS011;13092;51.996;4.458;2024-03-02T13:33:55;4.20;;;1.55;;
25111;SDS011;13092;51.996;4.458;2024-03-02T13:36:26;4.88;;;1.48;;
25111;SDS011;13092;51.996;4.458;2024-03-02T13:38:55;3.80;;;1.38;;
25111;SDS011;13092;51.996;4.458;2024-03-02T13:41:24;4.07;;;1.65;;
25111;SDS011;13092;51.996;4.458;2024-03-02T13:43:53;3.70;;;1.50;;
25111;SDS011;13092;51.996;4.458;2024-03-02T13:46:21;6.25;;;1.60;;
25111;SDS011;13092;51.996;4.458;2024-03-02T13:48:53;5.43;;;1.70;;
25111;SDS011;13092;51.996;4.458;2024-03-02T13:51:22;5.03;;;1.30;;
25111;SDS011;13092;51.996;4.458;2024-03-02T13:53:53;4.70;;;1.40;;
25111;SDS011;13092;51.996;4.458;2024-03-02T13:59:16;5.93;;;1.50;;
25111;SDS011;13092;51.996;4.458;2024-03-02T14:01:44;6.18;;;1.42;;
25111;SDS011;13092;51.996;4.458;2024-03-02T14:04:13;4.28;;;1.60;;
25111;SDS011;13092;51.996;4.458;2024-03-02T14:06:42;5.93;;;1.45;;
25111;SDS011;13092;51.996;4.458;2024-03-02T14:09:12;3.65;;;1.33;;
25111;SDS011;13092;51.996;4.458;2024-03-02T14:11:45;4.90;;;1.52;;
25111;SDS011;13092;51.996;4.458;2024-03-02T14:14:14;5.20;;;1.60;;
25111;SDS011;13092;51.996;4.458;2024-03-02T14:16:42;5.03;;;1.45;;
25111;SDS011;13092;51.996;4.458;2024-03-02T14:19:11;5.72;;;1.25;;
25111;SDS011;13092;51.996;4.458;2024-03-02T14:21:40;4.75;;;1.65;;
25111;SDS011;13092;51.996;4.458;2024-03-02T14:24:09;3.90;;;1.52;;
25111;SDS011;13092;51.996;4.458;2024-03-02T14:26:39;3.33;;;1.42;;
25111;SDS011;13092;51.996;4.458;2024-03-02T14:29:07;4.55;;;1.27;;
25111;SDS011;13092;51.996;4.458;2024-03-02T14:31:35;6.35;;;1.52;;
25111;SDS011;13092;51.996;4.458;2024-03-02T14:34:03;3.10;;;1.85;;
25111;SDS011;13092;51.996;4.458;2024-03-02T14:36:32;6.32;;;1.42;;
25111;SDS011;13092;51.996;4.458;2024-03-02T14:39:00;4.22;;;1.67;;
25111;SDS011;13092;51.996;4.458;2024-03-02T14:41:30;4.50;;;2.08;;
25111;SDS011;13092;51.996;4.458;2024-03-02T14:44:00;5.20;;;1.30;;
25111;SDS011;13092;51.996;4.458;2024-03-02T14:46:28;5.07;;;1.50;;
25111;SDS011;13092;51.996;4.458;2024-03-02T14:49:00;4.25;;;1.50;;